This is the latest recevied weather packets stored in our database for station/object LRCV. If no packets are shown the sender has not sent any weather packets the latest 10 day(s).
| Time | Temp. | Humidity | Pressure | Rain* | Wind** | Luminosity | Snow |
|---|---|---|---|---|---|---|---|
| 1777412022 | 12.22° C | 67% | 1017 hPa | - | - | - | - |
| 1777411122 | 12.78° C | 63% | 1017 hPa | - | - | - | - |
| 1777410221 | 12.78° C | 63% | 1017 hPa | - | - | - | - |
| 1777409362 | 12.22° C | 67% | 1017 hPa | - | - | - | - |
| 1777408421 | 12.22° C | 67% | 1017 hPa | - | - | - | - |
| 1777407521 | 12.78° C | 63% | 1016 hPa | - | - | - | - |
| 1777406621 | 12.78° C | 63% | 1016 hPa | - | - | - | - |
| 1777405777 | 12.78° C | 63% | 1016 hPa | - | - | - | - |
| 1777404823 | 12.78° C | 63% | 1016 hPa | - | - | - | - |
| 1777403945 | 13.89° C | 59% | 1016 hPa | - | - | - | - |
| 1777403021 | 13.89° C | 59% | 1016 hPa | - | - | - | - |
| 1777402122 | 15° C | 55% | 1016 hPa | - | - | - | - |
| 1777401222 | 15° C | 55% | 1016 hPa | - | - | - | - |
| 1777400322 | 16.11° C | 52% | 1016 hPa | - | - | - | - |
| 1777399422 | 16.11° C | 52% | 1016 hPa | - | - | - | - |
| 1777398521 | 16.11° C | 55% | 1015 hPa | - | - | - | - |
| 1777397621 | 16.11° C | 55% | 1015 hPa | - | - | - | - |
| 1777396802 | 17.78° C | 43% | 1015 hPa | - | - | - | - |
| 1777395821 | 17.78° C | 43% | 1015 hPa | - | - | - | - |
| 1777394922 | 17.78° C | 46% | 1015 hPa | - | - | - | - |
| 1777394022 | 17.78° C | 46% | 1015 hPa | - | - | - | - |
| 1777393122 | 20° C | 33% | 1015 hPa | - | - | - | - |
| 1777392221 | 20° C | 33% | 1015 hPa | - | - | - | - |
| 1777391322 | 21.11° C | 31% | 1015 hPa | - | - | - | - |
| 1777390421 | 21.11° C | 31% | 1015 hPa | - | - | - | - |
* Rain since midnight (hover to see other rain measurements)
** Current wind speed in m/s (hover to see current wind gust speed)